sensor_id;sensor_type;location;lat;lon;timestamp;P1;durP1;ratioP1;P2;durP2;ratioP2
10880;SDS011;5493;48.884;8.338;2023-04-16T00:02:03;14.07;;;9.73;;
10880;SDS011;5493;48.884;8.338;2023-04-16T00:04:30;15.50;;;10.70;;
10880;SDS011;5493;48.884;8.338;2023-04-16T00:06:56;15.83;;;10.47;;
10880;SDS011;5493;48.884;8.338;2023-04-16T00:09:24;13.80;;;10.07;;
10880;SDS011;5493;48.884;8.338;2023-04-16T00:11:51;16.83;;;10.83;;
10880;SDS011;5493;48.884;8.338;2023-04-16T00:14:17;17.20;;;10.33;;
10880;SDS011;5493;48.884;8.338;2023-04-16T00:16:44;13.67;;;10.30;;
10880;SDS011;5493;48.884;8.338;2023-04-16T00:19:10;14.57;;;10.37;;
10880;SDS011;5493;48.884;8.338;2023-04-16T00:21:37;21.13;;;11.80;;
10880;SDS011;5493;48.884;8.338;2023-04-16T00:24:04;15.73;;;10.30;;
10880;SDS011;5493;48.884;8.338;2023-04-16T00:26:31;16.20;;;11.13;;
10880;SDS011;5493;48.884;8.338;2023-04-16T00:28:58;19.63;;;12.53;;
10880;SDS011;5493;48.884;8.338;2023-04-16T00:31:25;16.37;;;10.80;;
10880;SDS011;5493;48.884;8.338;2023-04-16T00:33:52;15.43;;;11.17;;
10880;SDS011;5493;48.884;8.338;2023-04-16T00:36:19;15.37;;;11.00;;
10880;SDS011;5493;48.884;8.338;2023-04-16T00:38:45;15.77;;;10.87;;
10880;SDS011;5493;48.884;8.338;2023-04-16T00:41:12;20.47;;;11.93;;
10880;SDS011;5493;48.884;8.338;2023-04-16T00:43:40;19.80;;;12.37;;
10880;SDS011;5493;48.884;8.338;2023-04-16T00:46:06;23.40;;;12.63;;
10880;SDS011;5493;48.884;8.338;2023-04-16T00:48:33;15.43;;;10.27;;
10880;SDS011;5493;48.884;8.338;2023-04-16T00:51:02;15.67;;;11.00;;
10880;SDS011;5493;48.884;8.338;2023-04-16T00:53:30;16.33;;;10.47;;
10880;SDS011;5493;48.884;8.338;2023-04-16T00:55:56;12.83;;;9.50;;
10880;SDS011;5493;48.884;8.338;2023-04-16T00:58:23;12.63;;;9.10;;
10880;SDS011;5493;48.884;8.338;2023-04-16T01:00:52;14.03;;;10.27;;
10880;SDS011;5493;48.884;8.338;2023-04-16T01:03:18;12.57;;;10.07;;
10880;SDS011;5493;48.884;8.338;2023-04-16T01:05:45;14.30;;;10.23;;
10880;SDS011;5493;48.884;8.338;2023-04-16T01:08:14;14.23;;;10.33;;
10880;SDS011;5493;48.884;8.338;2023-04-16T01:10:42;15.90;;;10.50;;
10880;SDS011;5493;48.884;8.338;2023-04-16T01:13:08;13.27;;;9.43;;
10880;SDS011;5493;48.884;8.338;2023-04-16T01:15:35;13.80;;;9.90;;
10880;SDS011;5493;48.884;8.338;2023-04-16T01:18:11;13.00;;;9.33;;
10880;SDS011;5493;48.884;8.338;2023-04-16T01:20:40;14.67;;;10.40;;
10880;SDS011;5493;48.884;8.338;2023-04-16T01:23:06;14.47;;;9.60;;
10880;SDS011;5493;48.884;8.338;2023-04-16T01:25:33;13.27;;;9.77;;
10880;SDS011;5493;48.884;8.338;2023-04-16T01:27:59;12.60;;;9.60;;
10880;SDS011;5493;48.884;8.338;2023-04-16T01:30:26;13.83;;;9.77;;
10880;SDS011;5493;48.884;8.338;2023-04-16T01:32:52;14.10;;;10.77;;
10880;SDS011;5493;48.884;8.338;2023-04-16T01:35:19;14.03;;;10.40;;
10880;SDS011;5493;48.884;8.338;2023-04-16T01:37:47;14.33;;;9.60;;
10880;SDS011;5493;48.884;8.338;2023-04-16T01:40:15;12.93;;;9.90;;
10880;SDS011;5493;48.884;8.338;2023-04-16T01:42:41;13.90;;;9.90;;
10880;SDS011;5493;48.884;8.338;2023-04-16T01:45:08;15.30;;;10.10;;
10880;SDS011;5493;48.884;8.338;2023-04-16T01:47:35;13.23;;;9.67;;
10880;SDS011;5493;48.884;8.338;2023-04-16T01:50:02;14.03;;;10.43;;
10880;SDS011;5493;48.884;8.338;2023-04-16T01:52:30;16.13;;;11.00;;
10880;SDS011;5493;48.884;8.338;2023-04-16T01:54:57;14.67;;;10.93;;
10880;SDS011;5493;48.884;8.338;2023-04-16T01:57:24;15.00;;;10.87;;
10880;SDS011;5493;48.884;8.338;2023-04-16T01:59:50;15.37;;;10.20;;
10880;SDS011;5493;48.884;8.338;2023-04-16T02:02:17;12.43;;;9.60;;
10880;SDS011;5493;48.884;8.338;2023-04-16T02:04:44;14.87;;;10.20;;
10880;SDS011;5493;48.884;8.338;2023-04-16T02:07:11;14.23;;;10.00;;
10880;SDS011;5493;48.884;8.338;2023-04-16T02:09:38;13.30;;;9.77;;
10880;SDS011;5493;48.884;8.338;2023-04-16T02:12:07;16.63;;;10.47;;
10880;SDS011;5493;48.884;8.338;2023-04-16T02:14:35;15.77;;;10.53;;
10880;SDS011;5493;48.884;8.338;2023-04-16T02:17:01;13.07;;;9.80;;
10880;SDS011;5493;48.884;8.338;2023-04-16T02:19:28;19.33;;;12.00;;
10880;SDS011;5493;48.884;8.338;2023-04-16T02:21:55;15.37;;;11.13;;
10880;SDS011;5493;48.884;8.338;2023-04-16T02:24:21;19.20;;;11.40;;
10880;SDS011;5493;48.884;8.338;2023-04-16T02:26:48;16.73;;;11.10;;
10880;SDS011;5493;48.884;8.338;2023-04-16T02:29:16;19.93;;;11.10;;
10880;SDS011;5493;48.884;8.338;2023-04-16T02:31:43;16.27;;;10.63;;
10880;SDS011;5493;48.884;8.338;2023-04-16T02:34:10;16.13;;;11.10;;
10880;SDS011;5493;48.884;8.338;2023-04-16T02:36:37;17.43;;;10.77;;
10880;SDS011;5493;48.884;8.338;2023-04-16T02:39:04;17.77;;;11.67;;
10880;SDS011;5493;48.884;8.338;2023-04-16T02:41:30;16.77;;;10.73;;
10880;SDS011;5493;48.884;8.338;2023-04-16T02:43:57;14.53;;;10.80;;
10880;SDS011;5493;48.884;8.338;2023-04-16T02:46:25;16.60;;;10.17;;
10880;SDS011;5493;48.884;8.338;2023-04-16T02:48:51;13.87;;;10.53;;
10880;SDS011;5493;48.884;8.338;2023-04-16T02:51:18;15.23;;;10.87;;
10880;SDS011;5493;48.884;8.338;2023-04-16T02:53:44;15.53;;;10.57;;
10880;SDS011;5493;48.884;8.338;2023-04-16T02:56:11;19.57;;;11.63;;
10880;SDS011;5493;48.884;8.338;2023-04-16T02:58:37;19.07;;;12.70;;
10880;SDS011;5493;48.884;8.338;2023-04-16T03:01:04;18.93;;;12.50;;
10880;SDS011;5493;48.884;8.338;2023-04-16T03:03:32;17.90;;;11.80;;
10880;SDS011;5493;48.884;8.338;2023-04-16T03:05:58;18.00;;;10.83;;
10880;SDS011;5493;48.884;8.338;2023-04-16T03:08:25;18.27;;;12.07;;
10880;SDS011;5493;48.884;8.338;2023-04-16T03:10:51;19.27;;;13.03;;
10880;SDS011;5493;48.884;8.338;2023-04-16T03:13:18;19.67;;;11.87;;
10880;SDS011;5493;48.884;8.338;2023-04-16T03:15:46;17.97;;;11.70;;
10880;SDS011;5493;48.884;8.338;2023-04-16T03:18:13;15.03;;;11.00;;
10880;SDS011;5493;48.884;8.338;2023-04-16T03:20:41;18.40;;;11.50;;
10880;SDS011;5493;48.884;8.338;2023-04-16T03:23:08;19.90;;;12.93;;
10880;SDS011;5493;48.884;8.338;2023-04-16T03:25:34;15.03;;;11.03;;
10880;SDS011;5493;48.884;8.338;2023-04-16T03:28:01;18.30;;;11.77;;
10880;SDS011;5493;48.884;8.338;2023-04-16T03:30:27;14.73;;;10.30;;
10880;SDS011;5493;48.884;8.338;2023-04-16T03:32:54;17.23;;;11.03;;
10880;SDS011;5493;48.884;8.338;2023-04-16T03:35:20;14.03;;;10.23;;
10880;SDS011;5493;48.884;8.338;2023-04-16T03:37:48;17.20;;;11.40;;
10880;SDS011;5493;48.884;8.338;2023-04-16T03:40:15;17.63;;;11.73;;
10880;SDS011;5493;48.884;8.338;2023-04-16T03:42:42;16.87;;;11.23;;
10880;SDS011;5493;48.884;8.338;2023-04-16T03:45:09;16.50;;;10.70;;
10880;SDS011;5493;48.884;8.338;2023-04-16T03:47:35;15.43;;;10.97;;
10880;SDS011;5493;48.884;8.338;2023-04-16T03:50:02;13.80;;;10.73;;
10880;SDS011;5493;48.884;8.338;2023-04-16T03:52:29;15.50;;;10.93;;
10880;SDS011;5493;48.884;8.338;2023-04-16T03:54:57;14.53;;;10.40;;
10880;SDS011;5493;48.884;8.338;2023-04-16T03:57:23;14.23;;;11.03;;
10880;SDS011;5493;48.884;8.338;2023-04-16T03:59:50;14.40;;;10.57;;
10880;SDS011;5493;48.884;8.338;2023-04-16T04:02:16;13.97;;;10.00;;
10880;SDS011;5493;48.884;8.338;2023-04-16T04:04:43;15.13;;;9.83;;
10880;SDS011;5493;48.884;8.338;2023-04-16T04:07:09;13.90;;;10.43;;
10880;SDS011;5493;48.884;8.338;2023-04-16T04:09:36;15.53;;;10.33;;
10880;SDS011;5493;48.884;8.338;2023-04-16T04:12:04;14.60;;;10.40;;
10880;SDS011;5493;48.884;8.338;2023-04-16T04:14:30;14.27;;;10.07;;
10880;SDS011;5493;48.884;8.338;2023-04-16T04:16:57;14.47;;;10.40;;
10880;SDS011;5493;48.884;8.338;2023-04-16T04:19:23;13.23;;;9.80;;
10880;SDS011;5493;48.884;8.338;2023-04-16T04:21:49;12.80;;;9.70;;
10880;SDS011;5493;48.884;8.338;2023-04-16T04:24:16;14.73;;;10.17;;
10880;SDS011;5493;48.884;8.338;2023-04-16T04:26:42;13.70;;;10.03;;
10880;SDS011;5493;48.884;8.338;2023-04-16T04:29:10;12.13;;;9.50;;
10880;SDS011;5493;48.884;8.338;2023-04-16T04:31:37;13.37;;;10.30;;
10880;SDS011;5493;48.884;8.338;2023-04-16T04:34:03;15.97;;;10.33;;
10880;SDS011;5493;48.884;8.338;2023-04-16T04:36:30;12.50;;;9.50;;
10880;SDS011;5493;48.884;8.338;2023-04-16T04:38:56;13.37;;;9.50;;
10880;SDS011;5493;48.884;8.338;2023-04-16T04:41:23;14.50;;;10.03;;
10880;SDS011;5493;48.884;8.338;2023-04-16T04:43:50;14.07;;;10.17;;
10880;SDS011;5493;48.884;8.338;2023-04-16T04:46:18;17.50;;;10.10;;
10880;SDS011;5493;48.884;8.338;2023-04-16T04:48:45;12.20;;;9.20;;
10880;SDS011;5493;48.884;8.338;2023-04-16T04:51:11;13.13;;;9.10;;
10880;SDS011;5493;48.884;8.338;2023-04-16T04:53:38;12.47;;;9.43;;
10880;SDS011;5493;48.884;8.338;2023-04-16T04:56:05;15.13;;;10.10;;
10880;SDS011;5493;48.884;8.338;2023-04-16T04:58:31;12.80;;;9.53;;
10880;SDS011;5493;48.884;8.338;2023-04-16T05:00:58;14.23;;;9.80;;
10880;SDS011;5493;48.884;8.338;2023-04-16T05:03:26;11.93;;;9.03;;
10880;SDS011;5493;48.884;8.338;2023-04-16T05:05:52;13.70;;;9.73;;
10880;SDS011;5493;48.884;8.338;2023-04-16T05:08:19;15.67;;;10.10;;
10880;SDS011;5493;48.884;8.338;2023-04-16T05:10:45;14.47;;;9.87;;
10880;SDS011;5493;48.884;8.338;2023-04-16T05:13:12;14.63;;;9.80;;
10880;SDS011;5493;48.884;8.338;2023-04-16T05:15:38;11.67;;;9.07;;
10880;SDS011;5493;48.884;8.338;2023-04-16T05:18:05;14.70;;;10.37;;
10880;SDS011;5493;48.884;8.338;2023-04-16T05:20:33;12.23;;;9.30;;
10880;SDS011;5493;48.884;8.338;2023-04-16T05:22:59;14.70;;;10.27;;
10880;SDS011;5493;48.884;8.338;2023-04-16T05:25:26;12.40;;;9.47;;
10880;SDS011;5493;48.884;8.338;2023-04-16T05:27:52;14.10;;;10.27;;
10880;SDS011;5493;48.884;8.338;2023-04-16T05:30:19;13.47;;;9.97;;
10880;SDS011;5493;48.884;8.338;2023-04-16T05:32:45;15.10;;;10.30;;
10880;SDS011;5493;48.884;8.338;2023-04-16T05:35:12;15.47;;;10.40;;
10880;SDS011;5493;48.884;8.338;2023-04-16T05:37:40;13.30;;;10.53;;
10880;SDS011;5493;48.884;8.338;2023-04-16T05:40:07;12.67;;;9.43;;
10880;SDS011;5493;48.884;8.338;2023-04-16T05:42:34;13.47;;;9.77;;
10880;SDS011;5493;48.884;8.338;2023-04-16T05:45:01;13.87;;;9.47;;
10880;SDS011;5493;48.884;8.338;2023-04-16T05:47:28;11.80;;;9.47;;
10880;SDS011;5493;48.884;8.338;2023-04-16T05:49:55;14.17;;;9.53;;
10880;SDS011;5493;48.884;8.338;2023-04-16T05:52:21;13.87;;;10.03;;
10880;SDS011;5493;48.884;8.338;2023-04-16T05:54:49;15.50;;;10.53;;
10880;SDS011;5493;48.884;8.338;2023-04-16T05:57:16;16.47;;;10.07;;
10880;SDS011;5493;48.884;8.338;2023-04-16T05:59:42;11.50;;;8.73;;
10880;SDS011;5493;48.884;8.338;2023-04-16T06:02:09;13.07;;;9.43;;
10880;SDS011;5493;48.884;8.338;2023-04-16T06:04:36;14.10;;;9.63;;
10880;SDS011;5493;48.884;8.338;2023-04-16T06:07:02;12.83;;;9.67;;
10880;SDS011;5493;48.884;8.338;2023-04-16T06:09:29;13.37;;;9.40;;
10880;SDS011;5493;48.884;8.338;2023-04-16T06:11:56;12.57;;;9.00;;
10880;SDS011;5493;48.884;8.338;2023-04-16T06:14:23;12.83;;;9.13;;
10880;SDS011;5493;48.884;8.338;2023-04-16T06:16:49;13.03;;;8.77;;
10880;SDS011;5493;48.884;8.338;2023-04-16T06:19:16;14.10;;;9.70;;
10880;SDS011;5493;48.884;8.338;2023-04-16T06:21:42;12.33;;;9.00;;
10880;SDS011;5493;48.884;8.338;2023-04-16T06:24:09;14.07;;;9.70;;
10880;SDS011;5493;48.884;8.338;2023-04-16T06:26:37;15.60;;;10.27;;
10880;SDS011;5493;48.884;8.338;2023-04-16T06:29:05;14.80;;;10.40;;
10880;SDS011;5493;48.884;8.338;2023-04-16T06:31:31;14.10;;;10.43;;
10880;SDS011;5493;48.884;8.338;2023-04-16T06:33:58;12.40;;;9.20;;
10880;SDS011;5493;48.884;8.338;2023-04-16T06:36:24;11.50;;;8.70;;
10880;SDS011;5493;48.884;8.338;2023-04-16T06:38:51;13.03;;;9.17;;
10880;SDS011;5493;48.884;8.338;2023-04-16T06:41:18;11.47;;;8.40;;
10880;SDS011;5493;48.884;8.338;2023-04-16T06:43:45;14.17;;;8.20;;
10880;SDS011;5493;48.884;8.338;2023-04-16T06:46:13;12.43;;;8.30;;
10880;SDS011;5493;48.884;8.338;2023-04-16T06:48:39;11.63;;;8.43;;
10880;SDS011;5493;48.884;8.338;2023-04-16T06:51:05;12.10;;;8.20;;
10880;SDS011;5493;48.884;8.338;2023-04-16T06:53:32;13.57;;;8.57;;
10880;SDS011;5493;48.884;8.338;2023-04-16T06:55:59;11.67;;;8.03;;
10880;SDS011;5493;48.884;8.338;2023-04-16T06:58:25;13.43;;;8.60;;
10880;SDS011;5493;48.884;8.338;2023-04-16T07:00:52;13.20;;;7.93;;
10880;SDS011;5493;48.884;8.338;2023-04-16T07:03:20;12.20;;;8.50;;
10880;SDS011;5493;48.884;8.338;2023-04-16T07:05:46;13.57;;;8.23;;
10880;SDS011;5493;48.884;8.338;2023-04-16T07:08:12;12.53;;;8.57;;
10880;SDS011;5493;48.884;8.338;2023-04-16T07:10:39;11.63;;;7.83;;
10880;SDS011;5493;48.884;8.338;2023-04-16T07:13:06;11.10;;;7.73;;
10880;SDS011;5493;48.884;8.338;2023-04-16T07:15:32;12.37;;;8.10;;
10880;SDS011;5493;48.884;8.338;2023-04-16T07:17:58;14.07;;;8.73;;
10880;SDS011;5493;48.884;8.338;2023-04-16T07:20:26;13.67;;;8.63;;
10880;SDS011;5493;48.884;8.338;2023-04-16T07:22:53;12.47;;;8.60;;
10880;SDS011;5493;48.884;8.338;2023-04-16T07:25:19;12.70;;;8.30;;
10880;SDS011;5493;48.884;8.338;2023-04-16T07:27:46;11.53;;;8.10;;
10880;SDS011;5493;48.884;8.338;2023-04-16T07:30:13;13.17;;;9.30;;
10880;SDS011;5493;48.884;8.338;2023-04-16T07:32:39;11.73;;;8.77;;
10880;SDS011;5493;48.884;8.338;2023-04-16T07:35:06;13.67;;;8.83;;
10880;SDS011;5493;48.884;8.338;2023-04-16T07:37:34;12.93;;;9.00;;
10880;SDS011;5493;48.884;8.338;2023-04-16T07:40:01;17.97;;;11.83;;
10880;SDS011;5493;48.884;8.338;2023-04-16T07:42:28;11.43;;;8.57;;
10880;SDS011;5493;48.884;8.338;2023-04-16T07:44:54;13.43;;;9.27;;
10880;SDS011;5493;48.884;8.338;2023-04-16T07:47:21;13.70;;;8.70;;
10880;SDS011;5493;48.884;8.338;2023-04-16T07:49:50;13.90;;;8.30;;
10880;SDS011;5493;48.884;8.338;2023-04-16T07:52:17;13.73;;;8.30;;
10880;SDS011;5493;48.884;8.338;2023-04-16T07:54:44;12.87;;;8.87;;
10880;SDS011;5493;48.884;8.338;2023-04-16T07:57:11;11.67;;;9.33;;
10880;SDS011;5493;48.884;8.338;2023-04-16T07:59:37;13.43;;;10.10;;
10880;SDS011;5493;48.884;8.338;2023-04-16T08:02:05;14.87;;;9.33;;
10880;SDS011;5493;48.884;8.338;2023-04-16T08:04:32;12.13;;;9.23;;
10880;SDS011;5493;48.884;8.338;2023-04-16T08:06:59;12.73;;;7.87;;
10880;SDS011;5493;48.884;8.338;2023-04-16T08:09:25;12.33;;;8.73;;
10880;SDS011;5493;48.884;8.338;2023-04-16T08:11:54;13.60;;;9.27;;
10880;SDS011;5493;48.884;8.338;2023-04-16T08:14:20;12.30;;;8.47;;
10880;SDS011;5493;48.884;8.338;2023-04-16T08:16:47;12.57;;;8.37;;
10880;SDS011;5493;48.884;8.338;2023-04-16T08:19:13;12.37;;;8.57;;
10880;SDS011;5493;48.884;8.338;2023-04-16T08:21:40;10.73;;;7.90;;
10880;SDS011;5493;48.884;8.338;2023-04-16T08:24:06;12.00;;;8.07;;
10880;SDS011;5493;48.884;8.338;2023-04-16T08:26:33;11.83;;;8.17;;
10880;SDS011;5493;48.884;8.338;2023-04-16T08:29:01;13.10;;;8.43;;
10880;SDS011;5493;48.884;8.338;2023-04-16T08:31:27;13.67;;;7.93;;
10880;SDS011;5493;48.884;8.338;2023-04-16T08:33:54;12.13;;;7.90;;
10880;SDS011;5493;48.884;8.338;2023-04-16T08:36:20;12.83;;;8.37;;
10880;SDS011;5493;48.884;8.338;2023-04-16T08:38:47;10.67;;;7.70;;
10880;SDS011;5493;48.884;8.338;2023-04-16T08:41:14;10.33;;;7.20;;
10880;SDS011;5493;48.884;8.338;2023-04-16T08:43:43;13.20;;;7.40;;
10880;SDS011;5493;48.884;8.338;2023-04-16T08:46:11;11.70;;;7.17;;
10880;SDS011;5493;48.884;8.338;2023-04-16T08:48:39;10.67;;;7.00;;
10880;SDS011;5493;48.884;8.338;2023-04-16T08:51:08;11.23;;;7.90;;
10880;SDS011;5493;48.884;8.338;2023-04-16T08:53:40;10.70;;;7.67;;
10880;SDS011;5493;48.884;8.338;2023-04-16T08:56:12;11.97;;;7.67;;
10880;SDS011;5493;48.884;8.338;2023-04-16T08:58:40;14.87;;;8.00;;
10880;SDS011;5493;48.884;8.338;2023-04-16T09:01:08;13.70;;;8.07;;
10880;SDS011;5493;48.884;8.338;2023-04-16T09:03:37;13.07;;;8.10;;
10880;SDS011;5493;48.884;8.338;2023-04-16T09:06:04;10.93;;;7.43;;
10880;SDS011;5493;48.884;8.338;2023-04-16T09:08:32;12.80;;;8.23;;
10880;SDS011;5493;48.884;8.338;2023-04-16T09:11:00;11.23;;;7.30;;
10880;SDS011;5493;48.884;8.338;2023-04-16T09:13:26;11.90;;;8.20;;
10880;SDS011;5493;48.884;8.338;2023-04-16T09:15:53;12.67;;;8.37;;
10880;SDS011;5493;48.884;8.338;2023-04-16T09:18:21;11.60;;;8.13;;
10880;SDS011;5493;48.884;8.338;2023-04-16T09:20:49;11.37;;;7.50;;
10880;SDS011;5493;48.884;8.338;2023-04-16T09:23:16;11.73;;;7.13;;
10880;SDS011;5493;48.884;8.338;2023-04-16T09:25:43;13.83;;;8.90;;
10880;SDS011;5493;48.884;8.338;2023-04-16T09:28:09;12.90;;;7.97;;
10880;SDS011;5493;48.884;8.338;2023-04-16T09:30:36;9.03;;;6.80;;
10880;SDS011;5493;48.884;8.338;2023-04-16T09:33:12;11.23;;;7.13;;
10880;SDS011;5493;48.884;8.338;2023-04-16T09:35:44;10.13;;;7.30;;
10880;SDS011;5493;48.884;8.338;2023-04-16T09:38:12;9.00;;;6.60;;
10880;SDS011;5493;48.884;8.338;2023-04-16T09:40:39;9.10;;;6.50;;
10880;SDS011;5493;48.884;8.338;2023-04-16T09:43:08;11.47;;;7.33;;
10880;SDS011;5493;48.884;8.338;2023-04-16T09:45:46;10.73;;;7.53;;
10880;SDS011;5493;48.884;8.338;2023-04-16T09:48:13;12.37;;;7.93;;
10880;SDS011;5493;48.884;8.338;2023-04-16T09:50:45;10.67;;;6.97;;
10880;SDS011;5493;48.884;8.338;2023-04-16T09:53:21;13.90;;;7.77;;
10880;SDS011;5493;48.884;8.338;2023-04-16T09:55:49;10.27;;;6.63;;
10880;SDS011;5493;48.884;8.338;2023-04-16T09:58:17;9.70;;;6.80;;
10880;SDS011;5493;48.884;8.338;2023-04-16T10:00:43;12.07;;;7.30;;
10880;SDS011;5493;48.884;8.338;2023-04-16T10:03:10;11.53;;;7.40;;
10880;SDS011;5493;48.884;8.338;2023-04-16T10:05:36;11.23;;;7.40;;
10880;SDS011;5493;48.884;8.338;2023-04-16T10:08:09;12.23;;;7.70;;
10880;SDS011;5493;48.884;8.338;2023-04-16T10:10:38;13.00;;;8.50;;
10880;SDS011;5493;48.884;8.338;2023-04-16T10:13:05;14.70;;;9.60;;
10880;SDS011;5493;48.884;8.338;2023-04-16T10:15:32;13.00;;;9.00;;
10880;SDS011;5493;48.884;8.338;2023-04-16T10:17:59;15.07;;;9.90;;
10880;SDS011;5493;48.884;8.338;2023-04-16T10:20:25;12.93;;;8.90;;
10880;SDS011;5493;48.884;8.338;2023-04-16T10:22:53;11.20;;;8.03;;
10880;SDS011;5493;48.884;8.338;2023-04-16T10:25:20;12.17;;;8.17;;
10880;SDS011;5493;48.884;8.338;2023-04-16T10:27:48;9.97;;;7.43;;
10880;SDS011;5493;48.884;8.338;2023-04-16T10:30:15;10.93;;;7.97;;
10880;SDS011;5493;48.884;8.338;2023-04-16T10:32:43;18.67;;;10.47;;
10880;SDS011;5493;48.884;8.338;2023-04-16T10:35:13;13.20;;;9.37;;
10880;SDS011;5493;48.884;8.338;2023-04-16T10:37:41;13.77;;;9.17;;
10880;SDS011;5493;48.884;8.338;2023-04-16T10:42:55;13.00;;;8.40;;
10880;SDS011;5493;48.884;8.338;2023-04-16T10:45:26;13.17;;;8.40;;
10880;SDS011;5493;48.884;8.338;2023-04-16T10:47:56;12.50;;;8.87;;
10880;SDS011;5493;48.884;8.338;2023-04-16T10:50:22;12.30;;;8.20;;
10880;SDS011;5493;48.884;8.338;2023-04-16T10:52:55;10.57;;;8.07;;
10880;SDS011;5493;48.884;8.338;2023-04-16T10:55:50;14.10;;;9.33;;
10880;SDS011;5493;48.884;8.338;2023-04-16T10:58:29;12.13;;;8.40;;
10880;SDS011;5493;48.884;8.338;2023-04-16T11:00:58;10.70;;;8.03;;
10880;SDS011;5493;48.884;8.338;2023-04-16T11:03:28;13.47;;;9.07;;
10880;SDS011;5493;48.884;8.338;2023-04-16T11:06:08;16.47;;;10.27;;
10880;SDS011;5493;48.884;8.338;2023-04-16T11:08:36;17.33;;;10.10;;
10880;SDS011;5493;48.884;8.338;2023-04-16T11:11:03;12.30;;;8.17;;
10880;SDS011;5493;48.884;8.338;2023-04-16T11:13:31;12.13;;;8.17;;
10880;SDS011;5493;48.884;8.338;2023-04-16T11:16:00;10.13;;;7.00;;
10880;SDS011;5493;48.884;8.338;2023-04-16T11:18:26;8.80;;;5.33;;
10880;SDS011;5493;48.884;8.338;2023-04-16T11:20:53;7.77;;;5.33;;
10880;SDS011;5493;48.884;8.338;2023-04-16T11:23:20;8.83;;;5.23;;
10880;SDS011;5493;48.884;8.338;2023-04-16T11:25:46;7.37;;;5.07;;
10880;SDS011;5493;48.884;8.338;2023-04-16T11:28:15;7.33;;;5.17;;
10880;SDS011;5493;48.884;8.338;2023-04-16T11:30:43;8.27;;;5.80;;
10880;SDS011;5493;48.884;8.338;2023-04-16T11:33:10;6.03;;;4.90;;
10880;SDS011;5493;48.884;8.338;2023-04-16T11:35:37;6.77;;;4.80;;
10880;SDS011;5493;48.884;8.338;2023-04-16T11:38:05;6.70;;;4.67;;
10880;SDS011;5493;48.884;8.338;2023-04-16T11:40:32;7.10;;;4.73;;
10880;SDS011;5493;48.884;8.338;2023-04-16T11:43:00;8.47;;;5.43;;
10880;SDS011;5493;48.884;8.338;2023-04-16T11:45:27;6.90;;;5.00;;
10880;SDS011;5493;48.884;8.338;2023-04-16T11:47:55;6.43;;;4.83;;
10880;SDS011;5493;48.884;8.338;2023-04-16T11:50:22;7.13;;;4.63;;
10880;SDS011;5493;48.884;8.338;2023-04-16T11:52:51;6.27;;;4.10;;
10880;SDS011;5493;48.884;8.338;2023-04-16T11:55:19;6.63;;;4.80;;
10880;SDS011;5493;48.884;8.338;2023-04-16T11:57:46;6.67;;;4.27;;
10880;SDS011;5493;48.884;8.338;2023-04-16T12:00:13;6.57;;;4.27;;
10880;SDS011;5493;48.884;8.338;2023-04-16T12:02:40;8.07;;;4.20;;
10880;SDS011;5493;48.884;8.338;2023-04-16T12:07:56;7.70;;;5.17;;
10880;SDS011;5493;48.884;8.338;2023-04-16T12:10:23;8.70;;;5.70;;
10880;SDS011;5493;48.884;8.338;2023-04-16T12:12:50;8.97;;;5.90;;
10880;SDS011;5493;48.884;8.338;2023-04-16T12:15:16;9.63;;;6.60;;
10880;SDS011;5493;48.884;8.338;2023-04-16T12:17:43;7.90;;;5.57;;
10880;SDS011;5493;48.884;8.338;2023-04-16T12:20:10;8.27;;;6.00;;
10880;SDS011;5493;48.884;8.338;2023-04-16T12:22:40;7.63;;;5.37;;
10880;SDS011;5493;48.884;8.338;2023-04-16T12:25:10;7.07;;;5.67;;
10880;SDS011;5493;48.884;8.338;2023-04-16T12:27:41;5.90;;;4.43;;
10880;SDS011;5493;48.884;8.338;2023-04-16T12:30:10;6.97;;;4.40;;
10880;SDS011;5493;48.884;8.338;2023-04-16T12:32:38;7.57;;;5.33;;
10880;SDS011;5493;48.884;8.338;2023-04-16T12:35:05;6.73;;;4.80;;
10880;SDS011;5493;48.884;8.338;2023-04-16T12:37:33;8.17;;;5.53;;
10880;SDS011;5493;48.884;8.338;2023-04-16T12:40:02;7.53;;;4.97;;
10880;SDS011;5493;48.884;8.338;2023-04-16T12:42:29;6.70;;;4.90;;
10880;SDS011;5493;48.884;8.338;2023-04-16T12:45:00;6.60;;;4.87;;
10880;SDS011;5493;48.884;8.338;2023-04-16T12:47:26;9.23;;;7.10;;
10880;SDS011;5493;48.884;8.338;2023-04-16T12:49:53;6.87;;;4.97;;
10880;SDS011;5493;48.884;8.338;2023-04-16T12:52:21;6.53;;;4.83;;
10880;SDS011;5493;48.884;8.338;2023-04-16T12:54:47;7.00;;;5.27;;
10880;SDS011;5493;48.884;8.338;2023-04-16T12:57:15;7.17;;;5.50;;
10880;SDS011;5493;48.884;8.338;2023-04-16T12:59:42;6.80;;;4.67;;
10880;SDS011;5493;48.884;8.338;2023-04-16T13:02:08;6.10;;;4.70;;
10880;SDS011;5493;48.884;8.338;2023-04-16T13:04:35;8.93;;;4.80;;
10880;SDS011;5493;48.884;8.338;2023-04-16T13:07:01;7.17;;;4.50;;
10880;SDS011;5493;48.884;8.338;2023-04-16T13:09:28;6.07;;;4.30;;
10880;SDS011;5493;48.884;8.338;2023-04-16T13:11:55;5.83;;;4.23;;
10880;SDS011;5493;48.884;8.338;2023-04-16T13:14:23;8.50;;;4.97;;
10880;SDS011;5493;48.884;8.338;2023-04-16T13:16:50;5.27;;;4.20;;
10880;SDS011;5493;48.884;8.338;2023-04-16T13:19:17;5.60;;;4.50;;
10880;SDS011;5493;48.884;8.338;2023-04-16T13:21:44;6.80;;;4.27;;
10880;SDS011;5493;48.884;8.338;2023-04-16T13:24:10;6.83;;;4.47;;
10880;SDS011;5493;48.884;8.338;2023-04-16T13:26:37;6.80;;;5.10;;
10880;SDS011;5493;48.884;8.338;2023-04-16T13:29:04;6.77;;;4.90;;
10880;SDS011;5493;48.884;8.338;2023-04-16T13:31:32;7.40;;;5.50;;
10880;SDS011;5493;48.884;8.338;2023-04-16T13:33:59;10.13;;;6.17;;
10880;SDS011;5493;48.884;8.338;2023-04-16T13:36:27;8.77;;;6.13;;
10880;SDS011;5493;48.884;8.338;2023-04-16T13:38:54;11.40;;;9.73;;
10880;SDS011;5493;48.884;8.338;2023-04-16T13:41:21;8.60;;;6.03;;
10880;SDS011;5493;48.884;8.338;2023-04-16T13:43:47;8.67;;;5.60;;
10880;SDS011;5493;48.884;8.338;2023-04-16T13:46:15;7.93;;;5.83;;
10880;SDS011;5493;48.884;8.338;2023-04-16T13:48:44;8.57;;;6.43;;
10880;SDS011;5493;48.884;8.338;2023-04-16T13:51:11;7.53;;;4.87;;
10880;SDS011;5493;48.884;8.338;2023-04-16T13:53:39;6.33;;;4.60;;
10880;SDS011;5493;48.884;8.338;2023-04-16T13:56:05;6.73;;;4.93;;
10880;SDS011;5493;48.884;8.338;2023-04-16T13:58:32;9.60;;;5.37;;
10880;SDS011;5493;48.884;8.338;2023-04-16T14:00:59;9.43;;;5.93;;
10880;SDS011;5493;48.884;8.338;2023-04-16T14:03:25;9.37;;;5.87;;
10880;SDS011;5493;48.884;8.338;2023-04-16T14:06:12;9.63;;;6.00;;
10880;SDS011;5493;48.884;8.338;2023-04-16T14:08:41;13.10;;;5.40;;
10880;SDS011;5493;48.884;8.338;2023-04-16T14:11:08;6.57;;;4.60;;
10880;SDS011;5493;48.884;8.338;2023-04-16T14:13:37;7.73;;;4.90;;
10880;SDS011;5493;48.884;8.338;2023-04-16T14:16:08;8.93;;;5.13;;
10880;SDS011;5493;48.884;8.338;2023-04-16T14:18:46;7.27;;;4.80;;
10880;SDS011;5493;48.884;8.338;2023-04-16T14:21:14;9.80;;;6.93;;
10880;SDS011;5493;48.884;8.338;2023-04-16T14:23:41;10.37;;;6.30;;
10880;SDS011;5493;48.884;8.338;2023-04-16T14:26:07;9.00;;;6.43;;
10880;SDS011;5493;48.884;8.338;2023-04-16T14:28:34;8.50;;;5.07;;
10880;SDS011;5493;48.884;8.338;2023-04-16T14:31:01;7.30;;;4.87;;
10880;SDS011;5493;48.884;8.338;2023-04-16T14:33:27;9.67;;;6.33;;
10880;SDS011;5493;48.884;8.338;2023-04-16T14:35:54;7.57;;;5.93;;
10880;SDS011;5493;48.884;8.338;2023-04-16T14:38:22;7.47;;;5.77;;
10880;SDS011;5493;48.884;8.338;2023-04-16T14:40:48;9.23;;;7.00;;
10880;SDS011;5493;48.884;8.338;2023-04-16T14:43:15;9.57;;;6.10;;
10880;SDS011;5493;48.884;8.338;2023-04-16T14:45:41;11.27;;;8.07;;
10880;SDS011;5493;48.884;8.338;2023-04-16T14:48:08;7.60;;;5.60;;
10880;SDS011;5493;48.884;8.338;2023-04-16T14:50:34;7.07;;;5.23;;
10880;SDS011;5493;48.884;8.338;2023-04-16T14:53:02;8.67;;;6.93;;
10880;SDS011;5493;48.884;8.338;2023-04-16T14:55:31;8.63;;;5.77;;